Time;durP1;ratioP1;P1;durP2;ratioP2;P2;SDS_P1;SDS_P2;PMS_P1;PMS_P2;Temp;Humidity;BMP_temperature;BMP_pressure;BME280_temperature;BME280_humidity;BME280_pressure;Samples;Min_cycle;Max_cycle;Signal;HPM_P1;HPM_P2
2021/05/09 00:02:38;;;;;;;4.30;2.80;;;8.50;99.90;;;;;;5023362;28;21045;-76
2021/05/09 00:05:24;;;;;;;3.80;2.93;;;8.30;99.90;;;;;;5020412;28;20800;-77
2021/05/09 00:08:09;;;;;;;4.40;3.17;;;8.30;99.90;;;;;;5024975;28;20573;-76
2021/05/09 00:10:54;;;;;;;7.37;3.30;;;8.30;99.90;;;;;;5024353;28;20411;-76
2021/05/09 00:13:40;;;;;;;3.63;2.77;;;8.10;99.90;;;;;;5026523;28;20531;-77
2021/05/09 00:16:25;;;;;;;5.53;3.13;;;8.00;99.90;;;;;;5025636;28;20447;-78
2021/05/09 00:19:11;;;;;;;5.47;2.90;;;7.90;99.90;;;;;;5022335;28;20528;-77
2021/05/09 00:21:57;;;;;;;4.40;3.23;;;8.00;99.90;;;;;;5022015;28;20500;-77
2021/05/09 00:24:42;;;;;;;3.90;3.20;;;8.00;99.90;;;;;;5025416;28;20441;-76
2021/05/09 00:27:27;;;;;;;6.07;2.93;;;8.20;99.90;;;;;;5022306;28;20529;-78
2021/05/09 00:30:15;;;;;;;8.60;3.10;;;8.30;99.90;;;;;;5026359;28;20460;-77
2021/05/09 00:33:00;;;;;;;5.20;3.17;;;8.40;99.90;;;;;;5026748;28;20548;-77
2021/05/09 00:35:45;;;;;;;3.50;3.00;;;8.50;99.90;;;;;;5025183;28;20897;-77
2021/05/09 00:38:31;;;;;;;4.30;3.23;;;8.50;99.90;;;;;;5014791;28;20448;-77
2021/05/09 00:41:16;;;;;;;4.70;3.80;;;8.40;99.90;;;;;;5022237;28;20877;-77
2021/05/09 00:44:02;;;;;;;5.87;3.10;;;8.40;99.90;;;;;;5022912;28;20476;-77
2021/05/09 00:46:46;;;;;;;7.10;3.00;;;8.20;99.90;;;;;;5025316;28;20821;-77
2021/05/09 00:49:32;;;;;;;4.60;2.70;;;8.10;99.90;;;;;;5022527;28;20414;-77
2021/05/09 00:52:18;;;;;;;4.03;3.10;;;7.90;99.90;;;;;;5021855;28;20552;-77
2021/05/09 00:55:07;;;;;;;4.90;3.17;;;8.00;99.90;;;;;;5038514;23;20602;-75
2021/05/09 00:57:56;;;;;;;4.30;3.40;;;7.90;99.90;;;;;;5038592;28;20502;-75
2021/05/09 01:00:41;;;;;;;5.47;3.83;;;7.80;99.90;;;;;;5036508;28;20537;-75
2021/05/09 01:03:28;;;;;;;5.53;3.10;;;7.90;99.90;;;;;;5042149;28;20555;-75
2021/05/09 01:06:13;;;;;;;7.80;3.20;;;7.90;99.90;;;;;;5043567;28;20974;-75
2021/05/09 01:09:00;;;;;;;4.30;3.13;;;8.00;99.90;;;;;;5041720;28;20969;-76
2021/05/09 01:11:46;;;;;;;5.27;3.43;;;8.10;99.90;;;;;;5043066;28;20458;-75
2021/05/09 01:14:31;;;;;;;7.70;3.57;;;8.00;99.90;;;;;;5040322;28;20476;-75
2021/05/09 01:17:16;;;;;;;5.93;3.40;;;8.00;99.90;;;;;;5043749;28;20492;-75
2021/05/09 01:20:06;;;;;;;4.40;3.30;;;7.80;99.90;;;;;;5049890;28;20455;-75
2021/05/09 01:22:54;;;;;;;5.50;4.00;;;7.70;99.90;;;;;;5060240;28;20473;-75
2021/05/09 01:25:39;;;;;;;4.70;3.40;;;7.80;99.90;;;;;;5061092;28;20485;-75
2021/05/09 01:28:24;;;;;;;4.27;3.00;;;7.90;99.90;;;;;;5061700;28;20836;-75
2021/05/09 01:31:09;;;;;;;5.50;3.43;;;8.00;99.90;;;;;;5060595;28;20442;-75
2021/05/09 01:33:55;;;;;;;6.40;3.67;;;8.00;99.90;;;;;;5059317;28;20492;-76
2021/05/09 01:36:41;;;;;;;5.17;3.73;;;8.00;99.90;;;;;;5050187;28;20479;-76
2021/05/09 01:39:26;;;;;;;5.37;3.83;;;7.90;99.90;;;;;;5054782;28;20433;-75
2021/05/09 01:42:11;;;;;;;4.53;3.40;;;7.80;99.90;;;;;;5064090;28;20450;-76
2021/05/09 01:44:58;;;;;;;5.00;4.27;;;7.80;99.90;;;;;;5060549;28;20562;-76
2021/05/09 01:47:43;;;;;;;4.40;3.67;;;7.80;99.90;;;;;;5061477;28;20525;-75
2021/05/09 01:50:28;;;;;;;6.07;4.57;;;7.80;99.90;;;;;;5060701;28;20562;-75
2021/05/09 01:53:14;;;;;;;5.50;4.10;;;7.70;99.90;;;;;;5057992;28;20430;-75
2021/05/09 01:55:59;;;;;;;11.13;4.50;;;7.70;99.90;;;;;;5057431;28;20495;-75
2021/05/09 01:58:44;;;;;;;6.80;4.30;;;7.80;99.90;;;;;;5053739;28;20481;-76
2021/05/09 02:01:29;;;;;;;6.77;3.90;;;7.80;99.90;;;;;;5056335;28;20501;-75
2021/05/09 02:04:14;;;;;;;5.07;3.50;;;7.90;99.90;;;;;;5057187;28;21013;-75
2021/05/09 02:06:59;;;;;;;5.70;4.10;;;8.00;99.90;;;;;;5052390;28;20463;-75
2021/05/09 02:09:45;;;;;;;6.40;4.67;;;8.00;99.90;;;;;;5033286;28;20420;-75
2021/05/09 02:12:30;;;;;;;4.53;3.70;;;8.10;99.90;;;;;;5040366;28;20444;-75
2021/05/09 02:15:15;;;;;;;5.13;3.93;;;8.00;99.90;;;;;;5060093;28;20629;-75
2021/05/09 02:18:00;;;;;;;5.53;4.30;;;7.80;99.90;;;;;;5060514;28;20494;-75
2021/05/09 02:20:45;;;;;;;6.83;3.53;;;7.80;99.90;;;;;;5042248;28;20503;-75
2021/05/09 02:23:30;;;;;;;4.50;3.90;;;7.70;99.90;;;;;;5048643;28;20517;-75
2021/05/09 02:26:16;;;;;;;5.20;3.83;;;7.70;99.90;;;;;;5040390;28;20422;-75
2021/05/09 02:29:01;;;;;;;5.30;3.90;;;7.70;99.90;;;;;;5041565;28;20471;-76
2021/05/09 02:31:46;;;;;;;4.80;4.30;;;7.60;99.90;;;;;;5046661;28;20450;-75
2021/05/09 02:34:32;;;;;;;8.00;4.13;;;7.60;99.90;;;;;;5042862;28;20471;-76
2021/05/09 02:37:18;;;;;;;5.70;4.23;;;7.50;99.90;;;;;;5049177;28;20489;-76
2021/05/09 02:40:05;;;;;;;8.70;3.90;;;7.60;99.90;;;;;;5045861;28;20694;-75
2021/05/09 02:42:50;;;;;;;6.57;3.77;;;7.70;99.90;;;;;;5046646;28;20513;-75
2021/05/09 02:45:36;;;;;;;8.70;4.47;;;7.80;99.90;;;;;;5042716;28;21016;-75
2021/05/09 02:48:21;;;;;;;6.10;4.20;;;7.90;99.90;;;;;;5045206;28;20526;-75
2021/05/09 02:51:06;;;;;;;5.30;4.10;;;8.00;99.90;;;;;;5045737;28;20455;-75
2021/05/09 02:53:51;;;;;;;5.00;4.00;;;8.00;99.90;;;;;;5041528;28;20817;-75
2021/05/09 02:56:36;;;;;;;4.93;3.83;;;8.10;99.90;;;;;;5045111;28;20446;-75
2021/05/09 02:59:22;;;;;;;5.73;4.03;;;8.10;99.90;;;;;;5043757;28;20442;-75
2021/05/09 03:02:07;;;;;;;6.60;4.20;;;8.10;99.90;;;;;;5044840;28;20846;-75
2021/05/09 03:04:52;;;;;;;5.07;3.90;;;8.10;99.90;;;;;;5046641;28;20437;-75
2021/05/09 03:07:38;;;;;;;3.80;3.30;;;8.00;99.90;;;;;;5049095;28;20795;-75
2021/05/09 03:10:23;;;;;;;5.23;4.67;;;7.90;99.90;;;;;;5055682;28;20424;-75
2021/05/09 03:13:08;;;;;;;4.97;4.10;;;7.80;99.90;;;;;;5057061;28;20420;-75
2021/05/09 03:15:54;;;;;;;6.03;3.83;;;7.70;99.90;;;;;;5058575;28;20898;-74
2021/05/09 03:18:39;;;;;;;6.10;4.60;;;7.80;99.90;;;;;;5058017;28;20442;-75
2021/05/09 03:21:24;;;;;;;11.33;4.43;;;7.80;99.90;;;;;;5057196;28;20495;-75
2021/05/09 03:24:10;;;;;;;4.47;4.07;;;7.90;99.90;;;;;;5060915;28;20475;-75
2021/05/09 03:26:55;;;;;;;5.67;4.10;;;7.80;99.90;;;;;;5061444;28;20582;-75
2021/05/09 03:29:40;;;;;;;4.87;4.00;;;7.80;99.90;;;;;;5043259;28;20441;-75
2021/05/09 03:32:27;;;;;;;5.40;4.10;;;7.90;99.90;;;;;;5055816;28;20510;-75
2021/05/09 03:35:12;;;;;;;5.30;3.87;;;7.90;99.90;;;;;;5052002;28;20454;-75
2021/05/09 03:37:57;;;;;;;5.60;4.30;;;7.80;99.90;;;;;;5068834;28;20505;-75
2021/05/09 03:40:42;;;;;;;7.17;4.33;;;7.70;99.90;;;;;;5050995;28;20455;-75
2021/05/09 03:43:27;;;;;;;4.30;3.83;;;7.50;99.90;;;;;;5052580;28;20446;-76
2021/05/09 03:46:12;;;;;;;4.03;3.37;;;7.50;99.90;;;;;;5064016;28;20447;-76
2021/05/09 03:48:58;;;;;;;6.53;4.63;;;7.40;99.90;;;;;;5057204;28;20598;-75
2021/05/09 03:51:43;;;;;;;6.63;4.23;;;7.40;99.90;;;;;;5052064;28;20438;-75
2021/05/09 03:54:28;;;;;;;5.57;4.33;;;7.60;99.90;;;;;;5053616;28;20466;-75
2021/05/09 03:57:13;;;;;;;16.00;4.07;;;7.70;99.90;;;;;;5057443;28;20435;-75
2021/05/09 03:59:58;;;;;;;5.30;4.43;;;7.80;99.90;;;;;;5050401;28;20969;-75
2021/05/09 04:02:43;;;;;;;13.03;4.97;;;7.80;99.90;;;;;;5056516;28;20482;-75
2021/05/09 04:05:29;;;;;;;5.80;4.60;;;7.80;99.90;;;;;;5056451;28;20466;-75
2021/05/09 04:08:15;;;;;;;5.30;4.10;;;7.70;99.90;;;;;;5054251;28;20443;-75
2021/05/09 04:11:01;;;;;;;5.07;4.20;;;7.70;99.90;;;;;;5043455;28;21045;-75
2021/05/09 04:13:47;;;;;;;6.97;4.43;;;7.70;99.90;;;;;;5050174;28;20442;-75
2021/05/09 04:16:32;;;;;;;6.77;4.40;;;7.60;99.90;;;;;;5045426;28;20494;-74
2021/05/09 04:19:18;;;;;;;8.70;4.50;;;7.70;99.90;;;;;;5039642;28;20455;-75
2021/05/09 04:22:06;;;;;;;6.33;4.80;;;7.70;99.90;;;;;;5039079;28;20518;-75
2021/05/09 04:24:51;;;;;;;5.03;3.90;;;7.80;99.90;;;;;;5038751;28;20470;-75
2021/05/09 04:27:36;;;;;;;4.67;4.10;;;7.90;99.90;;;;;;5041586;28;20566;-75
2021/05/09 04:30:22;;;;;;;5.77;3.60;;;8.00;99.90;;;;;;5037484;28;20986;-75
2021/05/09 04:33:08;;;;;;;4.83;3.30;;;8.00;99.90;;;;;;5040065;28;20445;-75
2021/05/09 04:35:53;;;;;;;7.30;4.17;;;8.00;99.90;;;;;;5050155;28;21009;-76
2021/05/09 04:38:39;;;;;;;5.90;4.27;;;8.10;99.90;;;;;;5044772;28;20447;-76
2021/05/09 04:41:24;;;;;;;4.67;3.87;;;8.10;99.90;;;;;;5045317;28;21006;-75
2021/05/09 04:44:10;;;;;;;4.73;3.80;;;8.00;99.90;;;;;;5040948;28;20479;-74
2021/05/09 04:46:55;;;;;;;6.20;4.53;;;8.10;99.90;;;;;;5046043;28;20997;-75
2021/05/09 04:49:40;;;;;;;5.93;4.40;;;8.20;99.90;;;;;;5041673;28;20445;-75
2021/05/09 04:52:25;;;;;;;5.40;4.40;;;8.30;99.90;;;;;;5035806;28;20470;-75
2021/05/09 04:55:12;;;;;;;5.80;4.50;;;8.30;99.90;;;;;;5037405;28;21055;-75
2021/05/09 04:57:59;;;;;;;7.37;4.40;;;8.40;99.90;;;;;;5036840;28;20503;-75
2021/05/09 05:00:45;;;;;;;8.70;4.47;;;8.40;99.90;;;;;;5042235;28;20526;-75
2021/05/09 05:03:32;;;;;;;5.03;4.00;;;8.50;99.90;;;;;;5037908;28;20475;-74
2021/05/09 05:06:17;;;;;;;5.20;4.17;;;8.60;99.90;;;;;;5038743;28;20501;-74
2021/05/09 05:09:02;;;;;;;5.60;3.90;;;8.70;99.90;;;;;;5041586;28;20490;-75
2021/05/09 05:11:49;;;;;;;6.97;4.20;;;8.90;99.90;;;;;;5041884;28;20456;-75
2021/05/09 05:14:34;;;;;;;5.33;4.30;;;9.10;99.90;;;;;;5039749;28;20475;-75
2021/05/09 05:17:19;;;;;;;7.80;4.70;;;9.30;99.90;;;;;;5042573;28;20447;-75
2021/05/09 05:20:05;;;;;;;4.53;3.33;;;9.50;99.90;;;;;;5048296;28;20458;-76
2021/05/09 05:22:50;;;;;;;7.43;4.33;;;9.60;99.90;;;;;;5042256;28;20573;-75
2021/05/09 05:25:35;;;;;;;5.00;4.50;;;9.70;99.90;;;;;;5038204;28;20483;-75
2021/05/09 05:28:21;;;;;;;8.23;4.87;;;9.80;99.90;;;;;;5044008;28;21129;-76
2021/05/09 05:31:07;;;;;;;6.10;4.83;;;9.90;99.90;;;;;;5043573;28;20529;-75
2021/05/09 05:33:52;;;;;;;5.40;4.60;;;10.00;99.90;;;;;;5044733;28;20498;-76
2021/05/09 05:36:37;;;;;;;4.70;4.00;;;10.10;99.90;;;;;;5041785;28;20471;-75
2021/05/09 05:39:22;;;;;;;5.20;4.47;;;10.30;99.90;;;;;;5035669;28;20462;-75
2021/05/09 05:42:07;;;;;;;6.10;4.33;;;10.50;99.90;;;;;;5044513;28;21098;-75
2021/05/09 05:44:53;;;;;;;9.90;5.43;;;10.70;99.90;;;;;;5043666;28;20467;-75
2021/05/09 05:47:38;;;;;;;5.60;4.47;;;10.90;99.90;;;;;;5036766;28;20455;-75
2021/05/09 05:50:23;;;;;;;5.87;4.97;;;11.00;99.90;;;;;;5037391;28;20490;-75
2021/05/09 05:53:08;;;;;;;5.70;4.20;;;11.20;99.90;;;;;;5048950;28;20969;-76
2021/05/09 05:55:54;;;;;;;5.70;4.23;;;11.30;99.90;;;;;;5037658;28;20818;-76
2021/05/09 05:58:39;;;;;;;6.23;4.50;;;11.50;99.90;;;;;;5040197;28;20548;-76
2021/05/09 06:01:25;;;;;;;5.63;4.70;;;11.60;99.90;;;;;;5040843;28;21051;-75
2021/05/09 06:04:10;;;;;;;8.53;4.17;;;11.70;99.90;;;;;;5052106;28;20520;-76
2021/05/09 06:06:55;;;;;;;4.10;3.40;;;11.80;99.90;;;;;;5047976;28;20429;-75
2021/05/09 06:09:40;;;;;;;5.20;3.87;;;12.00;99.90;;;;;;5044174;28;20498;-75
2021/05/09 06:12:25;;;;;;;6.70;3.90;;;12.10;99.90;;;;;;5038418;28;20426;-76
2021/05/09 06:15:11;;;;;;;4.87;3.60;;;12.20;99.90;;;;;;5043766;28;20437;-76
2021/05/09 06:17:57;;;;;;;3.53;3.03;;;12.40;99.90;;;;;;5041140;28;20503;-76
2021/05/09 06:20:42;;;;;;;5.50;3.70;;;12.50;99.90;;;;;;5051317;28;20935;-75
2021/05/09 06:23:28;;;;;;;4.07;3.00;;;12.80;99.90;;;;;;5038727;28;20479;-75
2021/05/09 06:26:13;;;;;;;4.33;3.40;;;12.90;99.90;;;;;;5046387;28;20447;-77
2021/05/09 06:28:58;;;;;;;9.23;3.97;;;13.10;99.90;;;;;;5038950;28;20498;-76
2021/05/09 06:31:43;;;;;;;5.07;3.30;;;13.30;99.90;;;;;;5044077;28;20495;-77
2021/05/09 06:34:30;;;;;;;4.27;3.37;;;13.50;99.90;;;;;;5045069;28;20593;-76
2021/05/09 06:37:15;;;;;;;4.50;2.80;;;13.60;99.90;;;;;;5049029;28;20426;-75
2021/05/09 06:40:00;;;;;;;7.70;3.10;;;13.70;99.90;;;;;;5044314;28;20987;-76
2021/05/09 06:42:46;;;;;;;3.13;2.40;;;13.80;99.90;;;;;;5046530;28;20511;-76
2021/05/09 06:45:33;;;;;;;3.60;2.10;;;14.10;99.90;;;;;;5039249;28;20462;-76
2021/05/09 06:48:19;;;;;;;5.43;2.30;;;14.20;99.90;;;;;;5044867;28;21000;-77
2021/05/09 06:51:05;;;;;;;4.40;1.80;;;14.40;99.90;;;;;;5044571;28;20463;-77
2021/05/09 06:53:51;;;;;;;21.93;2.43;;;14.60;99.90;;;;;;5046762;28;20482;-78
2021/05/09 06:56:36;;;;;;;3.13;1.97;;;14.80;99.90;;;;;;5058747;22;20458;-71
2021/05/09 06:59:21;;;;;;;2.33;1.77;;;14.90;99.90;;;;;;5020318;28;20905;-71
2021/05/09 07:02:06;;;;;;;2.83;1.97;;;15.20;99.90;;;;;;5020339;28;20549;-71
2021/05/09 07:04:51;;;;;;;3.03;1.63;;;15.40;99.90;;;;;;5022562;28;20526;-71
2021/05/09 07:07:50;;;;;;;5.50;1.90;;;15.60;99.90;;;;;;5002528;28;20441;-70
2021/05/09 07:10:36;;;;;;;4.73;2.10;;;15.80;99.90;;;;;;5002870;28;20449;-70
2021/05/09 07:13:22;;;;;;;4.73;2.40;;;16.00;99.90;;;;;;5001892;28;20424;-72
2021/05/09 07:16:07;;;;;;;4.70;2.40;;;16.10;99.90;;;;;;5003609;28;20930;-72
2021/05/09 07:18:53;;;;;;;5.33;2.33;;;16.20;99.90;;;;;;5000882;28;20457;-73
2021/05/09 07:21:40;;;;;;;4.23;2.80;;;16.40;99.90;;;;;;5001471;28;20508;-72
2021/05/09 07:24:27;;;;;;;4.47;2.30;;;16.50;99.90;;;;;;5005756;28;20473;-72
2021/05/09 07:27:12;;;;;;;5.03;2.10;;;16.70;99.90;;;;;;5005529;28;20479;-73
2021/05/09 07:29:57;;;;;;;3.40;2.27;;;16.90;99.90;;;;;;5001504;28;22399;-73
2021/05/09 07:32:42;;;;;;;4.13;2.80;;;16.90;99.90;;;;;;5001201;28;20480;-74
2021/05/09 07:35:28;;;;;;;7.07;2.47;;;17.10;99.90;;;;;;5003487;28;21023;-74
2021/05/09 07:38:14;;;;;;;4.70;2.60;;;17.20;99.90;;;;;;5005880;28;20416;-72
2021/05/09 07:41:00;;;;;;;2.80;1.70;;;17.30;99.90;;;;;;5008061;28;20818;-72
2021/05/09 07:43:46;;;;;;;5.10;2.70;;;17.40;99.90;;;;;;5005722;28;20527;-72
2021/05/09 07:46:31;;;;;;;2.53;1.47;;;17.60;99.90;;;;;;5006535;28;20442;-69
2021/05/09 07:49:17;;;;;;;2.90;2.03;;;17.80;99.90;;;;;;4999362;28;20455;-71
2021/05/09 07:52:02;;;;;;;4.00;2.50;;;17.90;99.90;;;;;;5001632;28;20505;-71
2021/05/09 07:54:47;;;;;;;3.50;2.23;;;18.10;99.90;;;;;;5006821;28;20423;-72
2021/05/09 07:57:34;;;;;;;2.60;1.60;;;18.20;99.90;;;;;;5006046;28;20432;-72
2021/05/09 08:00:20;;;;;;;3.43;1.80;;;18.30;99.90;;;;;;5007934;28;20566;-72
2021/05/09 08:03:05;;;;;;;4.87;2.30;;;18.40;99.90;;;;;;5007843;28;20502;-72
2021/05/09 08:05:51;;;;;;;3.10;1.70;;;18.60;98.40;;;;;;5004629;28;20905;-72
2021/05/09 08:08:36;;;;;;;4.60;2.10;;;18.70;96.40;;;;;;5000417;28;20445;-72
2021/05/09 08:11:21;;;;;;;3.17;1.60;;;18.80;94.80;;;;;;4998806;28;20536;-72
2021/05/09 08:14:08;;;;;;;3.33;1.80;;;18.90;89.60;;;;;;5006041;28;20478;-72
2021/05/09 08:16:53;;;;;;;3.27;1.60;;;19.10;89.70;;;;;;5006060;28;20469;-72
2021/05/09 08:19:39;;;;;;;9.83;2.00;;;19.30;91.60;;;;;;5006275;28;20568;-72
2021/05/09 08:22:23;;;;;;;3.10;1.50;;;19.40;85.30;;;;;;5000718;28;20428;-72
2021/05/09 08:25:09;;;;;;;7.00;1.90;;;19.50;90.70;;;;;;5005205;28;20463;-72
2021/05/09 08:27:54;;;;;;;3.83;1.60;;;19.70;88.40;;;;;;5006448;28;20806;-73
2021/05/09 08:30:40;;;;;;;2.90;1.67;;;19.80;89.60;;;;;;5005790;28;20423;-71
2021/05/09 08:33:25;;;;;;;2.60;1.50;;;19.90;86.40;;;;;;5005272;28;20441;-71
2021/05/09 08:36:10;;;;;;;4.40;1.63;;;20.10;84.50;;;;;;5000431;28;20473;-73
2021/05/09 08:38:56;;;;;;;4.03;1.50;;;20.20;76.60;;;;;;5003660;28;20498;-73
2021/05/09 08:41:42;;;;;;;6.90;2.00;;;20.30;73.90;;;;;;5005140;28;20449;-74
2021/05/09 08:44:27;;;;;;;3.07;1.63;;;20.40;75.40;;;;;;5003813;28;21060;-73
2021/05/09 08:47:15;;;;;;;2.60;1.47;;;20.40;74.60;;;;;;5001807;28;20544;-74
2021/05/09 08:50:00;;;;;;;4.00;1.60;;;20.60;72.10;;;;;;5004309;28;20798;-73
2021/05/09 08:52:46;;;;;;;4.27;1.67;;;20.60;74.50;;;;;;4997444;28;20440;-74
2021/05/09 08:55:32;;;;;;;2.90;1.73;;;20.70;68.40;;;;;;5004623;28;20632;-74
2021/05/09 08:58:17;;;;;;;3.07;1.50;;;20.80;68.70;;;;;;4999885;28;20542;-73
2021/05/09 09:01:02;;;;;;;3.43;1.70;;;20.90;65.70;;;;;;5006033;28;20449;-74
2021/05/09 09:03:48;;;;;;;4.67;1.60;;;20.90;67.70;;;;;;5003467;28;20892;-74
2021/05/09 09:06:39;;;;;;;3.67;1.77;;;21.10;66.10;;;;;;4999912;28;20469;-74
2021/05/09 09:09:26;;;;;;;3.90;2.03;;;21.40;59.40;;;;;;5004083;28;20871;-74
2021/05/09 09:12:12;;;;;;;4.57;1.50;;;21.60;61.30;;;;;;5001119;28;20465;-73
2021/05/09 09:15:00;;;;;;;3.23;1.40;;;21.60;58.30;;;;;;5003004;28;20436;-73
2021/05/09 09:17:45;;;;;;;4.90;2.00;;;21.70;58.30;;;;;;5004155;28;20449;-74
2021/05/09 09:20:31;;;;;;;5.77;1.50;;;21.80;57.40;;;;;;5003946;28;20516;-74
2021/05/09 09:23:16;;;;;;;3.90;2.50;;;21.90;55.80;;;;;;5003068;28;20513;-74
2021/05/09 09:26:02;;;;;;;3.37;1.73;;;22.00;56.20;;;;;;5003219;28;21010;-74
2021/05/09 09:28:47;;;;;;;4.17;1.67;;;22.10;65.80;;;;;;4996830;28;20471;-73
2021/05/09 09:31:38;;;;;;;2.63;1.63;;;22.30;60.60;;;;;;5007507;28;20492;-74
2021/05/09 09:34:23;;;;;;;2.93;1.50;;;22.50;53.60;;;;;;5005502;28;20466;-73
2021/05/09 09:37:10;;;;;;;2.80;1.50;;;22.70;48.00;;;;;;5000856;28;20573;-74
2021/05/09 09:39:59;;;;;;;2.57;1.37;;;22.90;49.50;;;;;;5004489;28;20588;-74
2021/05/09 09:42:45;;;;;;;2.53;1.10;;;22.90;48.70;;;;;;5008742;28;21011;-74
2021/05/09 09:45:31;;;;;;;3.90;1.50;;;23.10;48.60;;;;;;5006458;28;20473;-74
2021/05/09 09:48:16;;;;;;;3.33;1.30;;;23.10;48.20;;;;;;5004514;28;20972;-74
2021/05/09 09:51:01;;;;;;;10.50;1.87;;;23.10;49.60;;;;;;5008140;28;20540;-73
2021/05/09 09:53:48;;;;;;;5.03;1.70;;;23.20;50.80;;;;;;5005719;28;21323;-74
2021/05/09 09:56:42;;;;;;;2.40;1.37;;;23.30;46.00;;;;;;5008204;28;20480;-74
2021/05/09 09:59:27;;;;;;;3.70;1.40;;;23.50;44.90;;;;;;5002336;28;20458;-74
2021/05/09 10:02:12;;;;;;;2.40;1.30;;;23.60;47.20;;;;;;5004949;28;20549;-74
2021/05/09 10:04:58;;;;;;;3.57;1.97;;;23.70;46.30;;;;;;5008691;28;20476;-74
2021/05/09 10:07:43;;;;;;;3.30;1.97;;;23.80;47.90;;;;;;5001269;28;20461;-74
2021/05/09 10:10:29;;;;;;;2.60;1.30;;;23.90;47.00;;;;;;5004085;28;20502;-74
2021/05/09 10:13:15;;;;;;;5.10;1.40;;;24.00;46.40;;;;;;5006267;28;20552;-74
2021/05/09 10:16:01;;;;;;;11.23;2.00;;;24.10;43.10;;;;;;5008315;28;21070;-74
2021/05/09 10:18:48;;;;;;;3.10;1.43;;;24.20;44.90;;;;;;5009585;28;20500;-74
2021/05/09 10:21:35;;;;;;;3.37;1.40;;;24.30;41.50;;;;;;5004784;28;20500;-73
2021/05/09 10:24:22;;;;;;;3.70;1.50;;;24.30;44.90;;;;;;5006310;28;20497;-73
2021/05/09 10:27:11;;;;;;;4.03;1.50;;;24.30;44.60;;;;;;5004675;28;20523;-74
2021/05/09 10:29:56;;;;;;;3.20;1.70;;;24.30;44.50;;;;;;5006759;28;20428;-73
2021/05/09 10:32:53;;;;;;;3.50;1.60;;;24.20;44.00;;;;;;5005239;28;20452;-73
2021/05/09 10:35:38;;;;;;;3.70;1.40;;;24.20;43.40;;;;;;5004966;28;20520;-73
2021/05/09 10:38:24;;;;;;;5.00;3.77;;;24.40;39.30;;;;;;5005986;28;20492;-74
2021/05/09 10:41:10;;;;;;;12.63;2.60;;;24.50;40.50;;;;;;5001820;28;20976;-73
2021/05/09 10:43:56;;;;;;;11.10;2.10;;;24.70;41.20;;;;;;5009726;28;20465;-73
2021/05/09 10:47:02;;;;;;;2.70;1.67;;;24.90;38.30;;;;;;5012286;28;20497;-74
2021/05/09 10:50:24;;;;;;;2.20;1.20;;;25.10;38.40;;;;;;5010118;28;20483;-73
2021/05/09 10:53:10;;;;;;;4.50;1.60;;;25.30;38.00;;;;;;5000048;28;21003;-73
2021/05/09 10:55:55;;;;;;;3.70;1.73;;;25.30;38.50;;;;;;5002131;28;20476;-74
2021/05/09 10:58:45;;;;;;;3.10;1.43;;;25.50;39.00;;;;;;5012665;28;20563;-74
2021/05/09 11:01:33;;;;;;;2.50;1.50;;;25.60;35.40;;;;;;5007243;28;20425;-73
2021/05/09 11:04:19;;;;;;;3.13;1.77;;;25.70;36.80;;;;;;5012756;28;20477;-73
2021/05/09 11:07:04;;;;;;;2.70;1.50;;;25.80;35.90;;;;;;5003095;28;20450;-73
2021/05/09 11:09:49;;;;;;;2.97;1.40;;;25.80;36.20;;;;;;5002329;28;20449;-73
2021/05/09 11:13:01;;;;;;;4.00;1.60;;;25.80;37.90;;;;;;5010013;28;20445;-73
2021/05/09 11:16:16;;;;;;;4.10;1.70;;;25.90;36.80;;;;;;4998226;28;20493;-73
2021/05/09 11:19:04;;;;;;;2.23;1.30;;;26.00;36.50;;;;;;5004547;28;21036;-73
2021/05/09 11:21:52;;;;;;;3.10;1.60;;;26.10;36.20;;;;;;5002684;28;20817;-73
2021/05/09 11:24:39;;;;;;;3.03;1.40;;;26.20;34.60;;;;;;5006696;28;20831;-73
2021/05/09 11:27:25;;;;;;;2.70;1.40;;;26.30;33.40;;;;;;5005504;28;20477;-73
2021/05/09 11:30:11;;;;;;;2.10;1.27;;;26.30;33.80;;;;;;5002691;28;21294;-73
2021/05/09 11:32:56;;;;;;;3.10;1.53;;;26.40;31.70;;;;;;5002906;28;20819;-73
2021/05/09 11:35:42;;;;;;;6.13;1.80;;;26.30;32.20;;;;;;5007902;28;20476;-73
2021/05/09 11:38:27;;;;;;;3.80;1.50;;;26.40;33.80;;;;;;5001382;28;20450;-73
2021/05/09 11:41:13;;;;;;;2.80;1.27;;;26.50;33.10;;;;;;5002099;28;20559;-73
2021/05/09 11:44:04;;;;;;;3.80;1.90;;;26.60;36.10;;;;;;5004454;28;21020;-73
2021/05/09 11:46:50;;;;;;;3.00;1.40;;;26.80;36.00;;;;;;5003654;28;20493;-73
2021/05/09 11:49:36;;;;;;;4.10;1.63;;;26.90;32.10;;;;;;5004359;28;20452;-73
2021/05/09 11:52:23;;;;;;;4.13;1.43;;;27.00;34.10;;;;;;5005699;28;20445;-73
2021/05/09 11:55:10;;;;;;;3.70;1.63;;;27.10;33.60;;;;;;5000792;28;20448;-73
2021/05/09 11:57:55;;;;;;;5.60;1.30;;;27.10;33.80;;;;;;5003720;28;20818;-73
2021/05/09 12:00:43;;;;;;;3.47;1.53;;;27.20;31.50;;;;;;5003154;28;20453;-73
2021/05/09 12:03:28;;;;;;;2.40;1.20;;;27.20;31.30;;;;;;5007122;28;20987;-74
2021/05/09 12:06:14;;;;;;;2.60;1.47;;;27.20;31.60;;;;;;5006126;28;20670;-73
2021/05/09 12:09:00;;;;;;;3.20;1.40;;;27.30;33.60;;;;;;5005317;28;20509;-74
2021/05/09 12:11:45;;;;;;;5.23;1.80;;;27.40;33.80;;;;;;5006330;28;20952;-73
2021/05/09 12:14:31;;;;;;;6.17;2.43;;;27.50;32.70;;;;;;5004057;28;20608;-73
2021/05/09 12:17:23;;;;;;;2.73;1.27;;;27.50;32.60;;;;;;5004347;28;20522;-73
2021/05/09 12:20:09;;;;;;;2.97;1.50;;;27.50;32.60;;;;;;5002618;28;20469;-73
2021/05/09 12:22:54;;;;;;;7.53;1.60;;;27.40;34.00;;;;;;5003121;28;20968;-73
2021/05/09 12:25:43;;;;;;;3.23;1.57;;;27.50;32.60;;;;;;4999651;28;20464;-73
2021/05/09 12:28:29;;;;;;;5.23;1.33;;;27.40;31.70;;;;;;5001952;28;20454;-73
2021/05/09 12:31:14;;;;;;;3.03;1.50;;;27.40;33.20;;;;;;5000698;28;20457;-73
2021/05/09 12:34:03;;;;;;;2.90;1.57;;;27.40;35.90;;;;;;5005893;28;20466;-73
2021/05/09 12:37:07;;;;;;;3.53;1.60;;;27.50;32.60;;;;;;5000951;28;20470;-73
2021/05/09 12:40:17;;;;;;;3.37;1.40;;;27.50;33.90;;;;;;5003548;28;20496;-73
2021/05/09 12:43:06;;;;;;;3.10;1.60;;;27.40;32.50;;;;;;4999732;28;20481;-74
2021/05/09 12:45:52;;;;;;;3.03;1.70;;;27.10;32.20;;;;;;4999421;28;21005;-73
2021/05/09 12:48:38;;;;;;;4.57;1.90;;;26.90;34.30;;;;;;5000269;28;20461;-73
2021/05/09 12:51:23;;;;;;;3.67;1.40;;;26.80;35.80;;;;;;5003764;28;20500;-73
2021/05/09 12:54:08;;;;;;;3.43;1.47;;;26.70;34.90;;;;;;5005196;28;20584;-73
2021/05/09 12:57:12;;;;;;;5.47;1.50;;;26.60;33.60;;;;;;5026468;23;20499;-73
2021/05/09 13:00:01;;;;;;;2.93;1.33;;;26.60;34.70;;;;;;5015005;28;20448;-73
2021/05/09 13:02:47;;;;;;;3.63;1.30;;;26.50;35.20;;;;;;5013549;28;20554;-73
2021/05/09 13:05:32;;;;;;;6.60;1.30;;;26.50;35.30;;;;;;5020217;28;20452;-72
2021/05/09 13:08:18;;;;;;;4.83;1.70;;;26.40;35.20;;;;;;4998697;28;20537;-72
2021/05/09 13:11:03;;;;;;;4.40;1.67;;;26.50;36.50;;;;;;5001726;28;21139;-72
2021/05/09 13:13:48;;;;;;;5.97;1.73;;;26.50;33.80;;;;;;5000052;28;21024;-73
2021/05/09 13:16:34;;;;;;;4.47;1.63;;;26.50;34.90;;;;;;4998300;28;20605;-73
2021/05/09 13:19:19;;;;;;;2.93;1.70;;;26.60;33.90;;;;;;5006256;28;20449;-72
2021/05/09 13:22:04;;;;;;;5.87;1.57;;;26.60;34.00;;;;;;5008879;28;20448;-72
2021/05/09 13:24:51;;;;;;;6.77;1.90;;;26.80;32.00;;;;;;5001482;28;20981;-73
2021/05/09 13:27:38;;;;;;;3.20;1.30;;;27.00;32.60;;;;;;5002150;28;21003;-73
2021/05/09 13:30:24;;;;;;;4.00;1.40;;;27.40;32.50;;;;;;4999466;28;20533;-73
2021/05/09 13:33:10;;;;;;;4.73;2.13;;;27.60;32.70;;;;;;4999820;28;20457;-72
2021/05/09 13:35:55;;;;;;;3.43;1.20;;;28.00;31.20;;;;;;5010519;28;20449;-73
2021/05/09 13:38:43;;;;;;;3.90;1.40;;;28.20;30.60;;;;;;5009006;28;20855;-74
2021/05/09 13:41:28;;;;;;;3.80;1.70;;;28.30;29.60;;;;;;4999624;28;20822;-74
2021/05/09 13:44:13;;;;;;;3.57;1.60;;;28.50;29.50;;;;;;5002057;28;21059;-74
2021/05/09 13:46:58;;;;;;;2.87;1.53;;;28.60;31.30;;;;;;4997913;28;20521;-72
2021/05/09 13:49:44;;;;;;;3.17;1.70;;;28.80;31.20;;;;;;5006081;28;20488;-72
2021/05/09 13:52:30;;;;;;;5.10;1.30;;;28.90;29.40;;;;;;5002242;28;20563;-73
2021/05/09 13:55:15;;;;;;;4.50;1.90;;;29.10;30.80;;;;;;4994788;28;21024;-72
2021/05/09 13:58:00;;;;;;;4.00;1.47;;;29.30;30.00;;;;;;4999075;28;20632;-73
2021/05/09 14:00:45;;;;;;;2.90;1.63;;;29.30;28.20;;;;;;4995435;28;20485;-73
2021/05/09 14:03:30;;;;;;;11.50;2.60;;;29.40;28.80;;;;;;5004730;28;21120;-73
2021/05/09 14:06:16;;;;;;;3.03;1.30;;;29.50;28.30;;;;;;5002830;28;20472;-74
2021/05/09 14:09:02;;;;;;;3.73;1.63;;;29.60;28.30;;;;;;5006122;28;20464;-74
2021/05/09 14:11:52;;;;;;;4.90;2.00;;;29.50;27.70;;;;;;5000343;28;20452;-76
2021/05/09 14:14:39;;;;;;;2.90;1.53;;;29.30;27.50;;;;;;5005862;28;20527;-77
2021/05/09 14:17:31;;;;;;;2.87;1.53;;;29.40;27.90;;;;;;4999882;28;20515;-76
2021/05/09 14:20:16;;;;;;;3.43;1.60;;;29.30;27.70;;;;;;5008029;28;20516;-76
2021/05/09 14:23:02;;;;;;;3.00;1.70;;;29.30;29.00;;;;;;4998335;28;20464;-76
2021/05/09 14:25:48;;;;;;;4.40;2.60;;;29.30;28.40;;;;;;5005115;28;20445;-77
2021/05/09 14:28:33;;;;;;;4.47;1.43;;;29.40;28.40;;;;;;5000334;28;21288;-76
2021/05/09 14:31:18;;;;;;;4.00;1.70;;;29.30;28.00;;;;;;5000722;28;20496;-75